Clayville, Rhode Island
Current Conditions -  °F | °C
As of 5:51 AM on Saturday 25 Oct 2014 (Local Time) from KPVD Reporting Station
Few Clouds Few Clouds  
Wind Chill: 43°   Ceiling: Unl
Heat Index: 45°   Visibility: 10mi
Dew Point: 39°   Wind: 5mph
Humidity: 80%   Direction: 270°W
Pressure: 29.79"   Gusts: NA
Location:  41.78°N, 71.68°W
Report Text: KPVD 250951Z 27004KT 10SM FEW150 07/04 A2979 RMK AO2 SLP087 FIRST AUGMENTED T00720039
Loading
Personal Weather Stations






























Interactive Weather Map
Tropical Storm Tracking
New forecast layout! Learn more

10-Day Weather Forecast

Advertisements
Track Severe Weather on mobile